aviador You're here:

CYRV Decoded Metar

REVELSTOKE AIRPO in BC, CANADA
Report Time2017-07-22 22:00:00
UTC Time2017-07-22 22:33:24
Flight Rules vfr VFR
WindCalm
Visibility9999 m
Phenomena:N/A
Clouds:Overcast 070 Hf
Expected CloudBase > 2,400 ft AGL from Temp-Dew spread
Ceiling7,000 ft
Temp18°C (ISA +6)
Dew Point12°C (68% RH)
QNH1021 hPa
Density Alt2,067 ft
Elevation1,453 ft
Report Wrong Elevation
Raw Report
CYRV 222200Z AUTO 00000KT 9SM OVC070 18/12 A3015 RMK SLP213
DENSITY ALT 1900FT=

Extra information for CYRV:More info

Metar Taf Metar & Taf Last 4 Metars F.Rules Stats Wind Profile Meteogram Temp Stats Airport Information Weather charts Add Link Nearby VenuesMetar ALERT Operation Metar Decoded Social comments